sensor_id;sensor_type;location;lat;lon;timestamp;pressure;altitude;pressure_sealevel;temperature;humidity
69524;BME280;56723;42.694;23.286;2023-02-12T00:01:19;96049.50;;;-0.44;43.97
69524;BME280;56723;42.694;23.286;2023-02-12T00:03:46;96046.94;;;-0.44;43.71
69524;BME280;56723;42.694;23.286;2023-02-12T00:06:14;96051.22;;;-0.44;43.80
69524;BME280;56723;42.694;23.286;2023-02-12T00:08:41;96053.38;;;-0.37;43.65
69524;BME280;56723;42.694;23.286;2023-02-12T00:11:11;96059.97;;;-0.32;43.45
69524;BME280;56723;42.694;23.286;2023-02-12T00:13:39;96059.16;;;-0.33;43.62
69524;BME280;56723;42.694;23.286;2023-02-12T00:16:08;96050.63;;;-0.32;43.53
69524;BME280;56723;42.694;23.286;2023-02-12T00:18:35;96057.34;;;-0.31;43.44
69524;BME280;56723;42.694;23.286;2023-02-12T00:21:02;96055.03;;;-0.36;43.50
69524;BME280;56723;42.694;23.286;2023-02-12T00:23:30;96057.50;;;-0.34;43.41
69524;BME280;56723;42.694;23.286;2023-02-12T00:25:57;96058.94;;;-0.28;43.40
69524;BME280;56723;42.694;23.286;2023-02-12T00:28:25;96058.94;;;-0.28;43.37
69524;BME280;56723;42.694;23.286;2023-02-12T00:30:54;96053.16;;;-0.32;43.49
69524;BME280;56723;42.694;23.286;2023-02-12T00:33:21;96051.59;;;-0.35;43.49
69524;BME280;56723;42.694;23.286;2023-02-12T00:35:55;96051.44;;;-0.31;43.60
69524;BME280;56723;42.694;23.286;2023-02-12T00:38:22;96042.91;;;-0.30;43.34
69524;BME280;56723;42.694;23.286;2023-02-12T00:40:49;96032.03;;;-0.34;43.41
69524;BME280;56723;42.694;23.286;2023-02-12T00:43:16;96033.09;;;-0.38;43.48
69524;BME280;56723;42.694;23.286;2023-02-12T00:45:44;96015.94;;;-0.35;43.70
69524;BME280;56723;42.694;23.286;2023-02-12T00:48:12;96027.63;;;-0.30;43.59
69524;BME280;56723;42.694;23.286;2023-02-12T00:50:40;96026.13;;;-0.35;43.78
69524;BME280;56723;42.694;23.286;2023-02-12T00:53:07;96009.13;;;-0.34;43.94
69524;BME280;56723;42.694;23.286;2023-02-12T00:55:34;96009.19;;;-0.36;43.86
69524;BME280;56723;42.694;23.286;2023-02-12T00:58:01;96016.41;;;-0.26;43.96
69524;BME280;56723;42.694;23.286;2023-02-12T01:00:28;96007.09;;;-0.27;43.85
69524;BME280;56723;42.694;23.286;2023-02-12T01:02:55;95996.78;;;-0.24;43.80
69524;BME280;56723;42.694;23.286;2023-02-12T01:05:23;96006.81;;;-0.21;43.62
69524;BME280;56723;42.694;23.286;2023-02-12T01:07:52;96006.81;;;-0.21;43.90
69524;BME280;56723;42.694;23.286;2023-02-12T01:10:19;96006.81;;;-0.21;43.72
69524;BME280;56723;42.694;23.286;2023-02-12T01:12:47;96005.25;;;-0.24;43.84
69524;BME280;56723;42.694;23.286;2023-02-12T01:15:15;96016.81;;;-0.18;44.03
69524;BME280;56723;42.694;23.286;2023-02-12T01:17:42;96018.47;;;-0.17;43.99
69524;BME280;56723;42.694;23.286;2023-02-12T01:20:12;96028.38;;;-0.11;43.57
69524;BME280;56723;42.694;23.286;2023-02-12T01:22:39;96025.81;;;-0.11;43.84
69524;BME280;56723;42.694;23.286;2023-02-12T01:25:07;96024.19;;;-0.12;43.68
69524;BME280;56723;42.694;23.286;2023-02-12T01:27:34;96021.91;;;-0.18;44.03
69524;BME280;56723;42.694;23.286;2023-02-12T01:30:02;96025.06;;;-0.13;44.04
69524;BME280;56723;42.694;23.286;2023-02-12T01:32:29;96022.75;;;-0.18;44.36
69524;BME280;56723;42.694;23.286;2023-02-12T01:34:56;96025.22;;;-0.16;44.08
69524;BME280;56723;42.694;23.286;2023-02-12T01:37:23;96015.22;;;-0.19;44.53
69524;BME280;56723;42.694;23.286;2023-02-12T01:39:51;96013.63;;;-0.22;44.41
69524;BME280;56723;42.694;23.286;2023-02-12T01:42:18;96011.16;;;-0.23;44.70
69524;BME280;56723;42.694;23.286;2023-02-12T01:47:42;95990.72;;;-0.22;44.64
69524;BME280;56723;42.694;23.286;2023-02-12T01:50:12;95985.09;;;-0.28;44.86
69524;BME280;56723;42.694;23.286;2023-02-12T01:52:43;95986.88;;;-0.30;45.13
69524;BME280;56723;42.694;23.286;2023-02-12T01:55:12;95984.47;;;-0.33;45.42
69524;BME280;56723;42.694;23.286;2023-02-12T01:57:42;95981.34;;;-0.39;45.26
69524;BME280;56723;42.694;23.286;2023-02-12T02:00:18;95989.91;;;-0.40;45.61
69524;BME280;56723;42.694;23.286;2023-02-12T02:02:48;95996.78;;;-0.42;45.58
69524;BME280;56723;42.694;23.286;2023-02-12T02:05:23;95992.88;;;-0.49;45.83
69524;BME280;56723;42.694;23.286;2023-02-12T02:07:54;95994.81;;;-0.54;46.24
69524;BME280;56723;42.694;23.286;2023-02-12T02:10:21;95986.34;;;-0.72;46.47
69524;BME280;56723;42.694;23.286;2023-02-12T03:26:48;95998.63;;;-1.72;57.08
69524;BME280;56723;42.694;23.286;2023-02-12T03:29:17;95993.59;;;-1.73;56.36
69524;BME280;56723;42.694;23.286;2023-02-12T03:34:52;95987.97;;;-1.61;56.61
69524;BME280;56723;42.694;23.286;2023-02-12T03:37:27;95987.00;;;-1.59;56.45
69524;BME280;56723;42.694;23.286;2023-02-12T03:40:02;95983.38;;;-1.53;56.34
69524;BME280;56723;42.694;23.286;2023-02-12T07:11:52;96101.75;;;-1.10;86.55
69524;BME280;56723;42.694;23.286;2023-02-12T07:14:19;96092.28;;;-1.07;86.04
69524;BME280;56723;42.694;23.286;2023-02-12T07:16:46;96095.38;;;-1.00;85.85
69524;BME280;56723;42.694;23.286;2023-02-12T07:19:13;96099.31;;;-0.93;85.67
69524;BME280;56723;42.694;23.286;2023-02-12T07:21:42;96104.16;;;-0.88;84.73
69524;BME280;56723;42.694;23.286;2023-02-12T07:24:10;96109.00;;;-0.82;84.63
69524;BME280;56723;42.694;23.286;2023-02-12T07:26:38;96105.41;;;-0.78;84.31
69524;BME280;56723;42.694;23.286;2023-02-12T07:29:06;96107.66;;;-0.72;83.87
69524;BME280;56723;42.694;23.286;2023-02-12T07:31:33;96104.91;;;-0.67;83.81
69524;BME280;56723;42.694;23.286;2023-02-12T08:46:28;96148.06;;;-0.83;87.74
69524;BME280;56723;42.694;23.286;2023-02-12T08:49:00;96167.09;;;-0.73;87.52
69524;BME280;56723;42.694;23.286;2023-02-12T08:51:33;96160.91;;;-0.67;87.26
69524;BME280;56723;42.694;23.286;2023-02-12T08:54:05;96157.19;;;-0.60;87.14
69524;BME280;56723;42.694;23.286;2023-02-12T08:56:34;96169.72;;;-0.56;86.70
69524;BME280;56723;42.694;23.286;2023-02-12T08:59:03;96173.91;;;-0.55;86.54
69524;BME280;56723;42.694;23.286;2023-02-12T09:01:32;96164.84;;;-0.60;86.89
69524;BME280;56723;42.694;23.286;2023-02-12T09:04:00;96173.00;;;-0.54;87.12
69524;BME280;56723;42.694;23.286;2023-02-12T09:06:27;96179.69;;;-0.51;87.04
69524;BME280;56723;42.694;23.286;2023-02-12T09:08:54;96186.34;;;-0.49;87.25
69524;BME280;56723;42.694;23.286;2023-02-12T09:11:24;96184.44;;;-0.44;87.00
69524;BME280;56723;42.694;23.286;2023-02-12T09:13:58;96189.38;;;-0.41;87.08
69524;BME280;56723;42.694;23.286;2023-02-12T09:16:27;96186.84;;;-0.41;86.91
69524;BME280;56723;42.694;23.286;2023-02-12T09:18:54;96184.06;;;-0.36;86.75
69524;BME280;56723;42.694;23.286;2023-02-12T09:21:22;96184.81;;;-0.34;86.57
69524;BME280;56723;42.694;23.286;2023-02-12T09:23:50;96186.47;;;-0.33;86.28
69524;BME280;56723;42.694;23.286;2023-02-12T09:26:19;96183.09;;;-0.33;86.36
69524;BME280;56723;42.694;23.286;2023-02-12T09:28:48;96179.06;;;-0.38;86.45
69524;BME280;56723;42.694;23.286;2023-02-12T09:31:18;96182.13;;;-0.31;86.34
69524;BME280;56723;42.694;23.286;2023-02-12T09:33:46;96186.34;;;-0.30;86.22
69524;BME280;56723;42.694;23.286;2023-02-12T09:36:20;96176.84;;;-0.26;86.29
69524;BME280;56723;42.694;23.286;2023-02-12T09:38:47;96181.72;;;-0.22;86.19
69524;BME280;56723;42.694;23.286;2023-02-12T09:46:44;96197.88;;;-0.04;86.03
69524;BME280;56723;42.694;23.286;2023-02-12T09:52:26;96200.28;;;-0.01;85.45
69524;BME280;56723;42.694;23.286;2023-02-12T09:54:55;96206.09;;;0.01;85.13
69524;BME280;56723;42.694;23.286;2023-02-12T09:57:33;96218.84;;;0.01;85.19
69524;BME280;56723;42.694;23.286;2023-02-12T10:19:52;96199.22;;;0.20;83.72
69524;BME280;56723;42.694;23.286;2023-02-12T10:25:31;96203.84;;;0.31;83.24
69524;BME280;56723;42.694;23.286;2023-02-12T10:28:08;96201.22;;;0.32;82.98
69524;BME280;56723;42.694;23.286;2023-02-12T10:31:06;96194.53;;;0.47;82.88
69524;BME280;56723;42.694;23.286;2023-02-12T10:33:46;96194.75;;;0.60;82.16
69524;BME280;56723;42.694;23.286;2023-02-12T10:36:32;96190.84;;;0.70;81.58
69524;BME280;56723;42.694;23.286;2023-02-12T10:39:26;96195.31;;;0.82;80.58
69524;BME280;56723;42.694;23.286;2023-02-12T10:42:02;96191.56;;;0.89;80.37
69524;BME280;56723;42.694;23.286;2023-02-12T10:44:33;96186.81;;;0.99;79.50
69524;BME280;56723;42.694;23.286;2023-02-12T10:47:00;96184.03;;;1.03;79.11
69524;BME280;56723;42.694;23.286;2023-02-12T10:49:30;96204.56;;;1.18;78.32
69524;BME280;56723;42.694;23.286;2023-02-12T10:55:00;96193.41;;;1.03;78.37
69524;BME280;56723;42.694;23.286;2023-02-12T10:57:29;96183.88;;;1.07;78.21
69524;BME280;56723;42.694;23.286;2023-02-12T11:00:19;96190.00;;;1.20;77.84
69524;BME280;56723;42.694;23.286;2023-02-12T11:05:32;96192.63;;;1.34;77.77
69524;BME280;56723;42.694;23.286;2023-02-12T11:08:02;96203.28;;;1.42;77.42
69524;BME280;56723;42.694;23.286;2023-02-12T11:10:38;96199.69;;;1.46;77.41
69524;BME280;56723;42.694;23.286;2023-02-12T11:13:24;96206.16;;;1.36;77.82
69524;BME280;56723;42.694;23.286;2023-02-12T11:15:53;96202.22;;;1.46;77.34
69524;BME280;56723;42.694;23.286;2023-02-12T11:18:25;96201.72;;;1.55;76.91
69524;BME280;56723;42.694;23.286;2023-02-12T11:21:06;96200.44;;;1.64;76.28
69524;BME280;56723;42.694;23.286;2023-02-12T11:23:37;96185.72;;;1.67;76.26
69524;BME280;56723;42.694;23.286;2023-02-12T11:26:08;96188.56;;;1.79;76.06
69524;BME280;56723;42.694;23.286;2023-02-12T11:31:29;96192.91;;;1.92;74.75
69524;BME280;56723;42.694;23.286;2023-02-12T11:36:50;96189.03;;;2.01;74.89
69524;BME280;56723;42.694;23.286;2023-02-12T11:41:59;96193.88;;;2.21;74.09
69524;BME280;56723;42.694;23.286;2023-02-12T11:44:34;96188.56;;;2.24;73.07
69524;BME280;56723;42.694;23.286;2023-02-12T11:47:04;96188.22;;;2.30;72.83
69524;BME280;56723;42.694;23.286;2023-02-12T11:49:40;96171.31;;;2.28;72.66
69524;BME280;56723;42.694;23.286;2023-02-12T11:52:22;96186.97;;;2.37;72.89
69524;BME280;56723;42.694;23.286;2023-02-12T11:54:51;96190.06;;;2.42;72.67
69524;BME280;56723;42.694;23.286;2023-02-12T12:00:13;96185.88;;;2.41;72.81
69524;BME280;56723;42.694;23.286;2023-02-12T12:05:45;96178.19;;;2.41;72.66
69524;BME280;56723;42.694;23.286;2023-02-12T12:08:28;96184.34;;;2.39;72.49
69524;BME280;56723;42.694;23.286;2023-02-12T12:11:03;96194.81;;;2.34;72.77
69524;BME280;56723;42.694;23.286;2023-02-12T12:13:39;96195.72;;;2.33;72.81
69524;BME280;56723;42.694;23.286;2023-02-12T12:16:23;96197.72;;;2.28;72.44
69524;BME280;56723;42.694;23.286;2023-02-12T12:19:25;96199.44;;;2.28;71.92
69524;BME280;56723;42.694;23.286;2023-02-12T12:24:59;96185.09;;;2.25;72.33
69524;BME280;56723;42.694;23.286;2023-02-12T12:39:52;96204.47;;;2.29;72.14
69524;BME280;56723;42.694;23.286;2023-02-12T12:41:57;96194.66;;;2.37;72.07
69524;BME280;56723;42.694;23.286;2023-02-12T12:47:39;96193.25;;;2.32;71.81
69524;BME280;56723;42.694;23.286;2023-02-12T13:17:42;96230.50;;;2.52;71.64
69524;BME280;56723;42.694;23.286;2023-02-12T13:20:46;96236.78;;;2.46;72.19
69524;BME280;56723;42.694;23.286;2023-02-12T13:23:36;96239.00;;;2.52;72.17
69524;BME280;56723;42.694;23.286;2023-02-12T13:29:18;96228.34;;;2.60;71.73
69524;BME280;56723;42.694;23.286;2023-02-12T13:31:55;96234.66;;;2.68;71.32
69524;BME280;56723;42.694;23.286;2023-02-12T13:34:25;96232.28;;;2.65;70.80
69524;BME280;56723;42.694;23.286;2023-02-12T13:36:54;96233.34;;;2.61;71.25
69524;BME280;56723;42.694;23.286;2023-02-12T13:39:29;96237.63;;;2.61;71.52
69524;BME280;56723;42.694;23.286;2023-02-12T13:45:01;96237.28;;;2.53;72.07
69524;BME280;56723;42.694;23.286;2023-02-12T13:58:57;96257.34;;;2.29;73.37
69524;BME280;56723;42.694;23.286;2023-02-12T14:01:46;96256.06;;;2.22;74.15
69524;BME280;56723;42.694;23.286;2023-02-12T14:06:53;96271.66;;;2.17;74.61
69524;BME280;56723;42.694;23.286;2023-02-12T14:09:33;96259.50;;;2.05;74.96
69524;BME280;56723;42.694;23.286;2023-02-12T14:12:04;96283.84;;;2.12;75.18
69524;BME280;56723;42.694;23.286;2023-02-12T14:14:36;96286.47;;;2.11;74.79
69524;BME280;56723;42.694;23.286;2023-02-12T14:25:01;96286.41;;;2.12;74.71
69524;BME280;56723;42.694;23.286;2023-02-12T14:27:51;96297.53;;;2.11;74.74
69524;BME280;56723;42.694;23.286;2023-02-12T14:30:27;96297.03;;;2.04;74.77
69524;BME280;56723;42.694;23.286;2023-02-12T14:32:57;96297.69;;;2.08;74.90
69524;BME280;56723;42.694;23.286;2023-02-12T14:35:36;96302.81;;;2.08;74.83
69524;BME280;56723;42.694;23.286;2023-02-12T14:40:47;96309.41;;;2.12;74.97
69524;BME280;56723;42.694;23.286;2023-02-12T14:43:34;96311.91;;;2.14;74.82
69524;BME280;56723;42.694;23.286;2023-02-12T14:48:55;96322.94;;;2.14;74.84
69524;BME280;56723;42.694;23.286;2023-02-12T14:53:55;96334.16;;;2.12;74.98
69524;BME280;56723;42.694;23.286;2023-02-12T14:56:23;96329.28;;;2.07;75.14
69524;BME280;56723;42.694;23.286;2023-02-12T14:58:52;96333.66;;;2.05;75.69
69524;BME280;56723;42.694;23.286;2023-02-12T15:01:29;96317.47;;;1.89;75.94
69524;BME280;56723;42.694;23.286;2023-02-12T15:04:11;96339.94;;;1.99;76.36
69524;BME280;56723;42.694;23.286;2023-02-12T15:06:49;96338.44;;;1.95;76.95
69524;BME280;56723;42.694;23.286;2023-02-12T15:09:28;96338.44;;;1.95;77.18
69524;BME280;56723;42.694;23.286;2023-02-12T15:12:05;96341.97;;;1.93;77.40
69524;BME280;56723;42.694;23.286;2023-02-12T15:14:39;96353.03;;;1.93;77.67
69524;BME280;56723;42.694;23.286;2023-02-12T15:17:13;96348.28;;;1.86;77.85
69524;BME280;56723;42.694;23.286;2023-02-12T15:20:01;96364.31;;;1.89;78.06
69524;BME280;56723;42.694;23.286;2023-02-12T15:22:34;96376.41;;;1.86;78.30
69524;BME280;56723;42.694;23.286;2023-02-12T15:25:21;96378.97;;;1.86;78.45
69524;BME280;56723;42.694;23.286;2023-02-12T15:27:57;96388.53;;;1.82;78.77
69524;BME280;56723;42.694;23.286;2023-02-12T15:30:28;96375.47;;;1.71;78.89
69524;BME280;56723;42.694;23.286;2023-02-12T15:32:57;96398.91;;;1.79;78.85
69524;BME280;56723;42.694;23.286;2023-02-12T15:35:27;96402.38;;;1.78;78.83
69524;BME280;56723;42.694;23.286;2023-02-12T15:37:56;96405.00;;;1.77;79.10
69524;BME280;56723;42.694;23.286;2023-02-12T15:40:26;96409.13;;;1.79;79.25
69524;BME280;56723;42.694;23.286;2023-02-12T15:42:57;96409.97;;;1.80;79.33
69524;BME280;56723;42.694;23.286;2023-02-12T15:45:25;96410.72;;;1.82;79.35
69524;BME280;56723;42.694;23.286;2023-02-12T15:50:28;96417.69;;;1.78;79.43
69524;BME280;56723;42.694;23.286;2023-02-12T15:52:58;96412.22;;;1.68;79.96
69524;BME280;56723;42.694;23.286;2023-02-12T15:55:27;96419.16;;;1.66;80.15
69524;BME280;56723;42.694;23.286;2023-02-12T15:57:58;96422.63;;;1.65;80.37
69524;BME280;56723;42.694;23.286;2023-02-12T16:00:40;96427.72;;;1.65;80.48
69524;BME280;56723;42.694;23.286;2023-02-12T16:03:35;96428.69;;;1.63;80.64
69524;BME280;56723;42.694;23.286;2023-02-12T16:06:06;96443.34;;;1.59;80.85
69524;BME280;56723;42.694;23.286;2023-02-12T16:08:42;96448.44;;;1.59;81.04
69524;BME280;56723;42.694;23.286;2023-02-12T16:11:16;96454.47;;;1.58;81.06
69524;BME280;56723;42.694;23.286;2023-02-12T16:13:51;96449.50;;;1.55;81.36
69524;BME280;56723;42.694;23.286;2023-02-12T16:16:26;96457.16;;;1.55;81.33
69524;BME280;56723;42.694;23.286;2023-02-12T16:19:24;96460.75;;;1.51;81.58
69524;BME280;56723;42.694;23.286;2023-02-12T16:21:57;96461.91;;;1.46;82.12
69524;BME280;56723;42.694;23.286;2023-02-12T16:24:39;96478.06;;;1.46;82.04
69524;BME280;56723;42.694;23.286;2023-02-12T16:29:46;96477.88;;;1.49;82.05
69524;BME280;56723;42.694;23.286;2023-02-12T16:32:38;96488.34;;;1.45;82.31
69524;BME280;56723;42.694;23.286;2023-02-12T16:35:26;96485.56;;;1.49;82.27
69524;BME280;56723;42.694;23.286;2023-02-12T16:38:01;96496.00;;;1.45;82.59
69524;BME280;56723;42.694;23.286;2023-02-12T16:40:31;96496.97;;;1.42;82.77
69524;BME280;56723;42.694;23.286;2023-02-12T16:43:02;96495.25;;;1.43;82.77
69524;BME280;56723;42.694;23.286;2023-02-12T16:45:40;96503.88;;;1.40;82.85
69524;BME280;56723;42.694;23.286;2023-02-12T16:50:37;96497.13;;;1.39;82.84
69524;BME280;56723;42.694;23.286;2023-02-12T16:53:38;96505.81;;;1.35;82.95
69524;BME280;56723;42.694;23.286;2023-02-12T16:56:16;96505.44;;;1.25;83.50
69524;BME280;56723;42.694;23.286;2023-02-12T16:58:45;96502.78;;;1.10;84.26
69524;BME280;56723;42.694;23.286;2023-02-12T17:01:21;96491.34;;;0.99;84.31
69524;BME280;56723;42.694;23.286;2023-02-12T17:03:49;96515.53;;;1.10;84.59
69524;BME280;56723;42.694;23.286;2023-02-12T17:06:18;96513.28;;;1.03;85.06
69524;BME280;56723;42.694;23.286;2023-02-12T17:08:46;96532.66;;;1.08;84.88
